TOM712 EGFF-HESH
Flight info
| Callsign | TOM712 |
|---|---|
| Flight time | N/A |
| Altitude | 33000 |
| Route | LEKCI DCT SAWPE Q63 CPT UL9 BIG L607 KONAN UL607 KOK M150 KOMOB/N0460F350 M150 GEBDA/N0461F340 Y173 PABLA/N0459F350 Z721 UTABA L607 ELMEM N606 OTRES T307 DIRAB DCT ROTAR DCT SONIK DCT PODOB DCT MEDUX UM867 KOGAT DCT ERANA UL737 TSL UN130 ESOPO/N0465F370 UN130 MES UL609 RDS UL995 VANZA N134 SAFTA L324 LAKTO L560 VUTAR |
| Aircraft | B738/M-SDE2E3FGHIRWXY/LB1 |
Departure
| Time | N/A |
|---|---|
| Airport | Cardiff International Airport (EGFF) |
Arrival
| Time | 2026-05-04 14:03 |
|---|---|
| Airport | Sharm El Sheikh International Airport (HESH) |
| Time | Latitude | Longitude | Altitude | Speed | Heading |
|---|---|---|---|---|---|
| 2026-05-04 13:10 | 32.80720 | 32.02109 | 38970 ft | 462 kts | 173° |
| 2026-05-04 13:11 | 32.77706 | 32.03180 | 38965 ft | 462 kts | 173° |
| 2026-05-04 13:11 | 32.72346 | 32.05087 | 38975 ft | 462 kts | 173° |
| 2026-05-04 13:12 | 32.66103 | 32.07304 | 38989 ft | 463 kts | 172° |
| 2026-05-04 13:12 | 32.63073 | 32.08716 | 38980 ft | 474 kts | 163° |
| 2026-05-04 13:12 | 32.60147 | 32.10742 | 38985 ft | 486 kts | 154° |
| 2026-05-04 13:13 | 32.54613 | 32.15493 | 38987 ft | 489 kts | 152° |
| 2026-05-04 13:13 | 32.49098 | 32.20314 | 38992 ft | 489 kts | 153° |
| 2026-05-04 13:14 | 32.43544 | 32.25070 | 38996 ft | 489 kts | 153° |
| 2026-05-04 13:14 | 32.37948 | 32.29807 | 38996 ft | 489 kts | 154° |
| 2026-05-04 13:15 | 32.32335 | 32.34547 | 39002 ft | 489 kts | 154° |
| 2026-05-04 13:15 | 32.26798 | 32.39224 | 39000 ft | 488 kts | 154° |
| 2026-05-04 13:16 | 32.21239 | 32.43916 | 39002 ft | 488 kts | 154° |
| 2026-05-04 13:16 | 32.15860 | 32.48445 | 39001 ft | 487 kts | 154° |
| 2026-05-04 13:17 | 32.10112 | 32.53265 | 39003 ft | 486 kts | 154° |
| 2026-05-04 13:17 | 32.04989 | 32.57554 | 39008 ft | 485 kts | 154° |
| 2026-05-04 13:18 | 31.99318 | 32.62302 | 39013 ft | 484 kts | 154° |
| 2026-05-04 13:18 | 31.93830 | 32.66892 | 39011 ft | 483 kts | 154° |
| 2026-05-04 13:19 | 31.88276 | 32.71531 | 39016 ft | 483 kts | 154° |
| 2026-05-04 13:19 | 31.82755 | 32.76135 | 39023 ft | 482 kts | 154° |
| 2026-05-04 13:20 | 31.77246 | 32.80723 | 39026 ft | 482 kts | 154° |
| 2026-05-04 13:20 | 31.71723 | 32.85315 | 39028 ft | 482 kts | 154° |
| 2026-05-04 13:21 | 31.67139 | 32.89122 | 39030 ft | 482 kts | 154° |
| 2026-05-04 13:21 | 31.61635 | 32.93686 | 39030 ft | 482 kts | 154° |
| 2026-05-04 13:22 | 31.56084 | 32.98284 | 39031 ft | 482 kts | 155° |
| 2026-05-04 13:22 | 31.50615 | 33.02808 | 39032 ft | 482 kts | 155° |
| 2026-05-04 13:23 | 31.45095 | 33.07370 | 39032 ft | 482 kts | 155° |
| 2026-05-04 13:23 | 31.39513 | 33.11975 | 39031 ft | 481 kts | 155° |
| 2026-05-04 13:24 | 31.33725 | 33.15617 | 39033 ft | 457 kts | 172° |
| 2026-05-04 13:24 | 31.27532 | 33.17970 | 39028 ft | 455 kts | 173° |
| 2026-05-04 13:25 | 31.18620 | 33.21325 | 39030 ft | 455 kts | 173° |
| 2026-05-04 13:25 | 31.12595 | 33.23647 | 39033 ft | 456 kts | 173° |
| 2026-05-04 13:26 | 31.06537 | 33.25997 | 39033 ft | 456 kts | 173° |
| 2026-05-04 13:26 | 31.00506 | 33.28336 | 39031 ft | 456 kts | 173° |
| 2026-05-04 13:27 | 30.94490 | 33.30664 | 39029 ft | 456 kts | 173° |
| 2026-05-04 13:27 | 30.88449 | 33.32998 | 39033 ft | 456 kts | 173° |
| 2026-05-04 13:28 | 30.82416 | 33.35325 | 39021 ft | 457 kts | 173° |
| 2026-05-04 13:28 | 30.76385 | 33.37648 | 39020 ft | 456 kts | 173° |
| 2026-05-04 13:29 | 30.70348 | 33.39971 | 39018 ft | 456 kts | 173° |
| 2026-05-04 13:29 | 30.64318 | 33.42289 | 39014 ft | 456 kts | 173° |
| 2026-05-04 13:30 | 30.59836 | 33.44010 | 39034 ft | 455 kts | 173° |
| 2026-05-04 13:30 | 30.54840 | 33.45925 | 39027 ft | 455 kts | 173° |
| 2026-05-04 13:31 | 30.53192 | 33.46556 | 39023 ft | 455 kts | 173° |
| 2026-05-04 13:31 | 30.48197 | 33.48468 | 39014 ft | 455 kts | 173° |
| 2026-05-04 13:32 | 30.42112 | 33.50795 | 39023 ft | 455 kts | 173° |
| 2026-05-04 13:32 | 30.35997 | 33.53129 | 39012 ft | 456 kts | 173° |
| 2026-05-04 13:33 | 30.29978 | 33.55426 | 39013 ft | 456 kts | 173° |
| 2026-05-04 13:33 | 30.23945 | 33.57726 | 39011 ft | 455 kts | 173° |
| 2026-05-04 13:34 | 30.17890 | 33.60031 | 39013 ft | 454 kts | 173° |
| 2026-05-04 13:34 | 30.11894 | 33.62310 | 39015 ft | 453 kts | 173° |
| 2026-05-04 13:35 | 30.02835 | 33.65751 | 39016 ft | 452 kts | 173° |
| 2026-05-04 13:36 | 29.96778 | 33.68047 | 39019 ft | 452 kts | 174° |
| 2026-05-04 13:36 | 29.90799 | 33.70313 | 39025 ft | 452 kts | 174° |
| 2026-05-04 13:37 | 29.84780 | 33.72597 | 39024 ft | 453 kts | 174° |
| 2026-05-04 13:37 | 29.78752 | 33.74887 | 39030 ft | 453 kts | 174° |
| 2026-05-04 13:38 | 29.72759 | 33.77162 | 39024 ft | 454 kts | 173° |
| 2026-05-04 13:38 | 29.66716 | 33.79455 | 39031 ft | 454 kts | 174° |
| 2026-05-04 13:39 | 29.60698 | 33.81475 | 39030 ft | 441 kts | 182° |
| 2026-05-04 13:39 | 29.57657 | 33.81814 | 39028 ft | 426 kts | 191° |
| 2026-05-04 13:39 | 29.54692 | 33.81799 | 39041 ft | 425 kts | 192° |
| 2026-05-04 13:40 | 29.48746 | 33.81711 | 39039 ft | 425 kts | 192° |
| 2026-05-04 13:40 | 29.42828 | 33.81655 | 39035 ft | 426 kts | 192° |
| 2026-05-04 13:41 | 29.36803 | 33.81631 | 38805 ft | 431 kts | 191° |
| 2026-05-04 13:41 | 29.33791 | 33.81621 | 38263 ft | 433 kts | 191° |
| 2026-05-04 13:41 | 29.30788 | 33.81619 | 37656 ft | 430 kts | 191° |
| 2026-05-04 13:42 | 29.25790 | 33.81617 | 36646 ft | 427 kts | 191° |
| 2026-05-04 13:42 | 29.22793 | 33.81613 | 36021 ft | 426 kts | 191° |
| 2026-05-04 13:42 | 29.19858 | 33.81606 | 35354 ft | 428 kts | 191° |
| 2026-05-04 13:42 | 29.16758 | 33.81599 | 34661 ft | 429 kts | 190° |
| 2026-05-04 13:43 | 29.13719 | 33.81590 | 33909 ft | 432 kts | 190° |
| 2026-05-04 13:43 | 29.10696 | 33.81583 | 33105 ft | 434 kts | 190° |
| 2026-05-04 13:43 | 29.07672 | 33.81578 | 32341 ft | 436 kts | 189° |
| 2026-05-04 13:43 | 29.04597 | 33.81573 | 31570 ft | 437 kts | 189° |
| 2026-05-04 13:44 | 29.01539 | 33.81568 | 30779 ft | 439 kts | 189° |
| 2026-05-04 13:44 | 28.98399 | 33.81563 | 29921 ft | 442 kts | 189° |
| 2026-05-04 13:44 | 28.95336 | 33.81560 | 28929 ft | 445 kts | 188° |
| 2026-05-04 13:44 | 28.92189 | 33.81557 | 27967 ft | 447 kts | 188° |
| 2026-05-04 13:45 | 28.88956 | 33.81553 | 26967 ft | 449 kts | 188° |
| 2026-05-04 13:45 | 28.85810 | 33.81550 | 25948 ft | 452 kts | 187° |
| 2026-05-04 13:45 | 28.82647 | 33.81834 | 25174 ft | 458 kts | 180° |
| 2026-05-04 13:45 | 28.79496 | 33.82361 | 24443 ft | 455 kts | 179° |
| 2026-05-04 13:46 | 28.76372 | 33.82906 | 23715 ft | 453 kts | 179° |
| 2026-05-04 13:46 | 28.73181 | 33.83467 | 22866 ft | 450 kts | 179° |
| 2026-05-04 13:46 | 28.70097 | 33.84004 | 22094 ft | 445 kts | 179° |
| 2026-05-04 13:46 | 28.67088 | 33.84520 | 21372 ft | 441 kts | 179° |
| 2026-05-04 13:47 | 28.64028 | 33.85039 | 20643 ft | 437 kts | 179° |
| 2026-05-04 13:47 | 28.60998 | 33.85549 | 19935 ft | 433 kts | 179° |
| 2026-05-04 13:47 | 28.58025 | 33.86046 | 19231 ft | 429 kts | 179° |
| 2026-05-04 13:47 | 28.54917 | 33.86565 | 18499 ft | 426 kts | 179° |
| 2026-05-04 13:48 | 28.52756 | 33.86925 | 17889 ft | 425 kts | 179° |
| 2026-05-04 13:48 | 28.49798 | 33.87417 | 17158 ft | 421 kts | 179° |
| 2026-05-04 13:48 | 28.46873 | 33.87905 | 16460 ft | 417 kts | 179° |
| 2026-05-04 13:48 | 28.44019 | 33.88381 | 15757 ft | 412 kts | 178° |
| 2026-05-04 13:49 | 28.41154 | 33.88859 | 15062 ft | 408 kts | 178° |
| 2026-05-04 13:49 | 28.38367 | 33.89324 | 14427 ft | 403 kts | 178° |
| 2026-05-04 13:49 | 28.35603 | 33.89784 | 13729 ft | 403 kts | 178° |
| 2026-05-04 13:49 | 28.32793 | 33.90251 | 13046 ft | 394 kts | 177° |
| 2026-05-04 13:50 | 28.30112 | 33.90704 | 12620 ft | 373 kts | 177° |
| 2026-05-04 13:50 | 28.27594 | 33.91131 | 12324 ft | 351 kts | 177° |
| 2026-05-04 13:50 | 28.25212 | 33.91530 | 11754 ft | 342 kts | 177° |
| 2026-05-04 13:50 | 28.22891 | 33.91916 | 11383 ft | 330 kts | 177° |
| 2026-05-04 13:51 | 28.20645 | 33.92290 | 11153 ft | 314 kts | 177° |
| 2026-05-04 13:51 | 28.18517 | 33.92644 | 10877 ft | 304 kts | 178° |
| 2026-05-04 13:51 | 28.16457 | 33.92985 | 10700 ft | 295 kts | 178° |
| 2026-05-04 13:51 | 28.14397 | 33.93326 | 10547 ft | 287 kts | 178° |
| 2026-05-04 13:52 | 28.10460 | 33.93974 | 9958 ft | 286 kts | 178° |
| 2026-05-04 13:52 | 28.08490 | 33.94298 | 9646 ft | 285 kts | 177° |
| 2026-05-04 13:52 | 28.06503 | 33.94627 | 9351 ft | 284 kts | 177° |
| 2026-05-04 13:53 | 28.04529 | 33.94954 | 9004 ft | 281 kts | 177° |
| 2026-05-04 13:53 | 28.02564 | 33.95280 | 8465 ft | 282 kts | 177° |
| 2026-05-04 13:53 | 28.00625 | 33.95602 | 7951 ft | 284 kts | 177° |
| 2026-05-04 13:54 | 27.96618 | 33.96262 | 7121 ft | 292 kts | 176° |
| 2026-05-04 13:54 | 27.94598 | 33.96595 | 6785 ft | 294 kts | 176° |
| 2026-05-04 13:54 | 27.90970 | 33.98699 | 6123 ft | 303 kts | 127° |
| 2026-05-04 13:55 | 27.89964 | 34.00822 | 5842 ft | 299 kts | 112° |
| 2026-05-04 13:55 | 27.88660 | 34.04474 | 5314 ft | 299 kts | 109° |
| 2026-05-04 13:55 | 27.87892 | 34.06681 | 5025 ft | 297 kts | 109° |
| 2026-05-04 13:56 | 27.87129 | 34.08846 | 4759 ft | 295 kts | 109° |
| 2026-05-04 13:56 | 27.86360 | 34.10999 | 4616 ft | 286 kts | 109° |
| 2026-05-04 13:56 | 27.84867 | 34.15143 | 4366 ft | 272 kts | 109° |
| 2026-05-04 13:57 | 27.84144 | 34.17135 | 4266 ft | 262 kts | 109° |
| 2026-05-04 13:57 | 27.83458 | 34.19016 | 4157 ft | 249 kts | 110° |
| 2026-05-04 13:58 | 27.83685 | 34.23905 | 3621 ft | 197 kts | 49° |
| 2026-05-04 13:58 | 27.85420 | 34.26217 | 3126 ft | 188 kts | 43° |
| 2026-05-04 13:58 | 27.86337 | 34.27227 | 2897 ft | 179 kts | 41° |
| 2026-05-04 13:59 | 27.87212 | 34.28153 | 2699 ft | 165 kts | 41° |
| 2026-05-04 13:59 | 27.88045 | 34.29026 | 2461 ft | 159 kts | 41° |
| 2026-05-04 13:59 | 27.89576 | 34.30633 | 2071 ft | 145 kts | 40° |
| 2026-05-04 14:00 | 27.90315 | 34.31412 | 1884 ft | 142 kts | 40° |
| 2026-05-04 14:00 | 27.91803 | 34.33095 | 1542 ft | 150 kts | 42° |
| 2026-05-04 14:00 | 27.92551 | 34.33886 | 1336 ft | 146 kts | 40° |
| 2026-05-04 14:01 | 27.93332 | 34.34617 | 1065 ft | 144 kts | 41° |
| 2026-05-04 14:01 | 27.94081 | 34.35375 | 918 ft | 144 kts | 44° |
| 2026-05-04 14:01 | 27.95561 | 34.36943 | 588 ft | 143 kts | 42° |
| 2026-05-04 14:02 | 27.96290 | 34.37668 | 360 ft | 137 kts | 44° |
| 2026-05-04 14:02 | 27.96978 | 34.38388 | 180 ft | 130 kts | 43° |
| 2026-05-04 14:02 | 27.97583 | 34.39015 | 172 ft | 97 kts | 43° |
| 2026-05-04 14:02 | 27.97972 | 34.39427 | 174 ft | 61 kts | 43° |
| 2026-05-04 14:03 | 27.98114 | 34.39566 | 173 ft | 21 kts | 13° |
| 2026-05-04 14:03 | 27.98218 | 34.39490 | 173 ft | 4 kts | 315° |
| 2026-05-04 14:03 | 27.98232 | 34.39474 | 172 ft | 5 kts | 311° |
| 2026-05-04 14:03 | 27.98262 | 34.39439 | 171 ft | 7 kts | 311° |
| 2026-05-04 14:04 | 27.98337 | 34.39338 | 171 ft | 8 kts | 311° |
| 2026-05-04 14:04 | 27.98382 | 34.39267 | 171 ft | 10 kts | 281° |
| 2026-05-04 14:04 | 27.98344 | 34.39196 | 171 ft | 15 kts | 224° |
| 2026-05-04 14:05 | 27.98107 | 34.38955 | 171 ft | 27 kts | 223° |
| 2026-05-04 14:05 | 27.97980 | 34.38807 | 171 ft | 24 kts | 226° |
| 2026-05-04 14:05 | 27.97866 | 34.38678 | 171 ft | 23 kts | 219° |
| 2026-05-04 14:06 | 27.97762 | 34.38577 | 171 ft | 15 kts | 224° |
| 2026-05-04 14:06 | 27.97692 | 34.38503 | 171 ft | 10 kts | 224° |
| 2026-05-04 14:06 | 27.97652 | 34.38490 | 171 ft | 5 kts | 171° |
| 2026-05-04 14:06 | 27.97627 | 34.38515 | 171 ft | 3 kts | 133° |
| 2026-05-04 14:07 | 27.97626 | 34.38516 | 171 ft | 0 kts | 133° |